• Join FlightAware (Why Join?)
  • Login
  • US Flag 
03:57AM EDT


 

Airport Tracker/Info


-or-


 

Live Flight TrackerFlight Track Log ✈ N5936Q ✈ 22-Jun-2013 ✈ KDCY - KOSU

Flight Track Log - Related Links

Times and Time Zones

All times are in EDT time to prevent confusion due to time zone crossing. See the N5936Q flight status page for this flight to view local times or setup timezone preferences in your user account.

Time Position Orientation Groundspeed Altitude Reporting Facility
EDT Latitude Longitude Course Direction KTS MPH feet Rate Location/Type
04:29PM 38.6728 -86.9611 93° East 100 115 4,800  Level Indianapolis Center
04:30PM 38.6722 -86.9264 91° East 98 113 5,500 720 Climbing Indianapolis Center
04:31PM 38.6628 -86.8961 112° Southeast 81 93 6,300 480 Climbing Indianapolis Center
04:32PM 38.6611 -86.8631 94° East 87 100 6,600 360 Climbing Indianapolis Center
04:33PM 38.7794 -86.9123 65° Northeast  Level Estimated
04:33PM 38.6600 -86.8317 93° East 102 117 7,100  Level Indianapolis Center
04:34PM 38.6586 -86.7919 93° East 104 120 7,600 540 Climbing Indianapolis Center
04:35PM 38.6556 -86.7575 96° East 94 108 8,300 600 Climbing Indianapolis Center
04:36PM 38.6536 -86.7242 94° East 93 107 8,900 480 Climbing Indianapolis Center
04:37PM 38.6458 -86.6956 109° East 88 101 9,400 360 Climbing Indianapolis Center
04:38PM 38.6353 -86.6625 112° Southeast 95 109 9,700 360 Climbing Indianapolis Center
04:39PM 38.6244 -86.6308 114° Southeast 97 112 10,200 420 Climbing Indianapolis Center
04:40PM 38.6219 -86.5978 96° East 94 108 10,600 300 Climbing Indianapolis Center
04:41PM 38.6181 -86.5664 99° East 91 105 10,900 360 Climbing Indianapolis Center
04:42PM 38.6000 -86.5300 122° Southeast 98 113 11,400 300 Climbing Indianapolis Center
04:43PM 38.5847 -86.4972 121° Southeast 105 121 11,600 120 Climbing Indianapolis Center
04:44PM 38.5844 -86.4569 90° East 113 130 11,700  Climbing Indianapolis Center
04:45PM 38.5872 -86.4161 85° East 116 133 11,700 -60 Level Indianapolis Center
04:46PM 38.5864 -86.3739 91° East 118 136 11,600 -60 Descending Indianapolis Center
04:47PM 38.5889 -86.3308 86° East 121 139 11,600  Level Indianapolis Center
04:48PM 38.5922 -86.2889 84° East 121 139 11,600  Level Indianapolis Center
04:49PM 38.5958 -86.2467 84° East 120 138 11,600  Level Indianapolis Center
04:50PM 38.5833 -86.2036 110° East 127 146 11,600  Level Indianapolis Center
04:51PM 38.5783 -86.1614 99° East 123 142 11,600 60 Level Indianapolis Center
04:52PM 38.5786 -86.1125 90° East 116 133 11,800  Climbing Indianapolis Center
04:53PM 38.5878 -86.0719 74° East 117 135 11,700 -120 Descending Indianapolis Center
04:54PM 38.5967 -86.0283 75° East 123 142 11,600 -60 Descending Indianapolis Center
04:55PM 38.6056 -85.9842 76° East 127 146 11,600 -60 Level Indianapolis Center
04:56PM 38.6136 -85.9422 76° East 124 143 11,500 -120 Descending Indianapolis Center
04:57PM 38.6161 -85.8975 86° East 124 143 11,400 -60 Descending Indianapolis Center
04:58PM 38.6197 -85.8539 84° East 123 142 11,400 -60 Level Indianapolis Center
04:59PM 38.6256 -85.8108 80° East 124 143 11,300 -60 Descending Indianapolis Center
05:00PM 38.6319 -85.7642 80° East 122 140 11,300 -60 Level Indianapolis Center
05:01PM 38.6383 -85.7211 79° East 123 142 11,200  Descending Indianapolis Center
05:03PM 38.6450 -85.6792 78° East 122 140 11,300  Climbing Indianapolis Center
05:04PM 38.6547 -85.6397 72° East 120 138 11,200  Descending Indianapolis Center
05:05PM 38.6583 -85.5961 84° East 124 143 11,400 60 Climbing Indianapolis Center
05:06PM 38.6597 -85.5475 88° East 117 135 11,400  Level Indianapolis Center
05:07PM 38.6608 -85.5044 88° East 120 138 11,400  Level Indianapolis Center
05:08PM 38.6642 -85.4636 84° East 118 136 11,400  Level Indianapolis Center
05:09PM 38.6650 -85.4206 89° East 121 139 11,400  Level Indianapolis Center
05:10PM 38.6664 -85.3797 87° East 117 135 11,500  Climbing Indianapolis Center
05:11PM 38.6686 -85.3397 86° East 115 132 11,500  Level Indianapolis Center
05:12PM 38.6733 -85.2981 82° East 120 138 11,600  Climbing Indianapolis Center
05:13PM 38.6783 -85.2581 81° East 116 133 11,600 -60 Level Indianapolis Center
05:14PM 38.6867 -85.2086 78° East 118 136 11,500 -60 Descending Indianapolis Center
05:15PM 38.6919 -85.1672 81° East 118 136 11,500  Level Indianapolis Center
05:16PM 38.6969 -85.1267 81° East 116 133 11,600  Climbing Indianapolis Center
05:17PM 38.7014 -85.0853 82° East 118 136 11,600 -60 Level Indianapolis Center
05:18PM 38.7078 -85.0414 79° East 123 142 11,500 -60 Descending Indianapolis Center
05:19PM 38.7128 -84.9997 81° East 120 138 11,500  Level Indianapolis Center
05:20PM 38.7211 -84.9583 76° East 121 139 11,500  Level Indianapolis Center
05:21PM 38.7275 -84.9192 78° East 115 132 11,600  Climbing Indianapolis Center
05:22PM 38.7350 -84.8669 80° East 123 142 11,600 -60 Level Indianapolis Center
05:23PM 38.7433 -84.8269 75° East 119 137 11,500 -120 Descending Indianapolis Center
05:24PM 38.7508 -84.7842 77° East 122 140 11,400  Descending Indianapolis Center
05:25PM 38.7536 -84.7419 85° East 121 139 11,500  Climbing Indianapolis Center
05:26PM 38.7547 -84.7003 88° East 118 136 11,500 -60 Level Indianapolis Center
05:27PM 38.7564 -84.6575 87° East 120 138 11,400  Descending Indianapolis Center
05:28PM 38.7600 -84.6128 84° East 126 145 11,500 -300 Climbing Indianapolis Center
05:29PM 38.7661 -84.5667 80° East 131 151 10,800 -780 Descending Indianapolis Center
05:30PM 38.7783 -84.5119 74° East 140 161 10,000 -780 Descending Indianapolis Center
05:31PM 38.7906 -84.4611 73° East 146 168 9,300 -720 Descending Indianapolis Center
05:32PM 38.8019 -84.4106 74° East 148 170 8,600 -720 Descending Indianapolis Center
05:33PM 38.8189 -84.3628 66° East 145 167 7,900 -780 Descending Indianapolis Center
05:34PM 38.8439 -84.3239 50° Northeast 142 163 7,100 -840 Descending Indianapolis Center
05:35PM 38.8756 -84.2939 36° Northeast 141 162 6,200 -840 Descending Indianapolis Center
05:36PM 38.9058 -84.2497 49° Northeast 140 161 5,400 -420 Descending Indianapolis Center
05:37PM 38.9289 -84.2114 52° Northeast 136 157 5,400  Level Indianapolis Center
05:38PM 38.9575 -84.1792 41° Northeast 136 157 5,400  Level Indianapolis Center
05:39PM 38.9864 -84.1469 41° Northeast 136 157 5,500  Climbing Indianapolis Center
05:40PM 39.0147 -84.1158 40° Northeast 133 153 5,400 -60 Descending Indianapolis Center
05:41PM 39.0464 -84.0839 38° Northeast 141 162 5,400  Level Indianapolis Center
05:42PM 39.0794 -84.0569 32° Northeast 140 161 5,400  Level Indianapolis Center
05:43PM 39.1114 -84.0286 35° Northeast 139 160 5,500  Climbing Indianapolis Center
05:44PM 39.1425 -83.9958 39° Northeast 141 162 5,500  Level Indianapolis Center
05:46PM 39.1678 -83.9611 47° Northeast 134 154 5,500  Level Indianapolis Center
05:47PM 39.1986 -83.9281 40° Northeast 138 159 5,500 -60 Level Indianapolis Center
05:48PM 39.2319 -83.9022 31° Northeast 139 160 5,400 -60 Descending Indianapolis Center
05:49PM 39.2661 -83.8783 28° Northeast 139 160 5,400  Level Indianapolis Center
05:49PM 39.2944 -83.8464 41° Northeast 143 165 5,400  Level Indianapolis Center
05:50PM 39.3264 -83.8125 39° Northeast 139 160 5,400  Level Indianapolis Center
05:51PM 39.3561 -83.7811 39° Northeast 138 159 5,400  Level Indianapolis Center
05:52PM 39.3814 -83.7494 44° Northeast 138 159 5,400  Level Indianapolis Center
05:53PM 39.4111 -83.7178 39° Northeast 136 157 5,500  Climbing Indianapolis Center
05:55PM 39.4478 -83.6739 43° Northeast 141 162 5,400 -60 Descending Indianapolis Center
05:56PM 39.4794 -83.6428 37° Northeast 139 160 5,400  Level Indianapolis Center
05:57PM 39.5106 -83.6125 37° Northeast 139 160 5,400 -60 Level Indianapolis Center
05:58PM 39.5392 -83.5742 46° Northeast 137 158 5,300 -120 Descending Indianapolis Center
05:59PM 39.5689 -83.5400 42° Northeast 139 160 5,200 -300 Descending Indianapolis Center
06:00PM 39.6022 -83.5117 33° Northeast 147 169 4,800 -540 Descending Indianapolis Center
06:01PM 39.6342 -83.4750 41° Northeast 160 184 4,200 -660 Descending Indianapolis Center
06:02PM 39.6703 -83.4386 38° Northeast 155 178 3,500 -600 Descending Indianapolis Center
06:03PM 39.6983 -83.4014 46° Northeast 146 168 3,100 -240 Descending Indianapolis Center
06:04PM 39.7317 -83.3600 44° Northeast 146 168 3,000 -60 Descending Indianapolis Center
06:05PM 39.7594 -83.3356 34° Northeast 133 153 3,000  Level Indianapolis Center
06:06PM 39.7844 -83.3086 40° Northeast 136 157 3,000  Level Indianapolis Center
06:07PM 39.8178 -83.2800 33° Northeast 138 159 3,100 -60 Climbing Indianapolis Center
06:08PM 39.8517 -83.2461 38° Northeast 141 162 2,900 -180 Descending Indianapolis Center
06:09PM 39.8822 -83.2281 24° Northeast 148 170 2,800 -60 Descending Indianapolis Center
06:10PM 39.9108 -83.2069 30° Northeast 135 155 2,800  Level Indianapolis Center
06:10PM 39.9247 -83.1961 31° Northeast 139 160 2,800 60 Level Indianapolis Center
06:11PM 39.9439 -83.1836 27° Northeast 138 159 2,900 180 Climbing Indianapolis Center
06:11PM 39.9578 -83.1711 35° Northeast 137 158 3,000 60 Climbing Indianapolis Center
06:12PM 39.9792 -83.1578 26° Northeast 138 159 3,000 -120 Level Indianapolis Center
06:12PM 39.9917 -83.1481 31° Northeast 137 158 2,900 -240 Descending Indianapolis Center